Time;durP1;ratioP1;P1;durP2;ratioP2;P2;SDS_P1;SDS_P2;PMS_P1;PMS_P2;Temp;Humidity;BMP_temperature;BMP_pressure;BME280_temperature;BME280_humidity;BME280_pressure;Samples;Min_cycle;Max_cycle;Signal;HPM_P1;HPM_P2
2023/08/27 00:06:40;;;;;;;0.83;0.63;;;;;;;20.77;85.57;100640.09;21074220;28;20496;-64
2023/08/27 00:16:42;;;;;;;0.98;0.70;;;;;;;20.77;85.31;100636.53;21072674;28;20070;-63
2023/08/27 00:26:44;;;;;;;0.90;0.60;;;;;;;20.76;85.22;100651.06;21071550;28;20535;-64
2023/08/27 00:36:46;;;;;;;1.42;0.82;;;;;;;20.75;85.29;100662.91;21072688;28;20519;-63
2023/08/27 00:46:48;;;;;;;0.70;0.70;;;;;;;20.73;85.18;100657.66;21069352;28;20561;-64
2023/08/27 00:56:51;;;;;;;1.20;0.80;;;;;;;20.69;85.19;100638.19;21081778;28;20095;-63
2023/08/27 01:06:52;;;;;;;0.80;0.80;;;;;;;20.70;84.91;100639.88;21087514;28;20535;-63
2023/08/27 01:16:56;;;;;;;1.33;0.70;;;;;;;20.69;84.89;100629.25;21085075;28;20409;-64
2023/08/27 01:27:21;;;;;;;0.95;0.85;;;;;;;20.69;84.98;100634.66;21083375;28;20040;-63
2023/08/27 01:37:23;;;;;;;1.17;0.90;;;;;;;20.68;85.07;100622.97;21082907;28;20052;-64
2023/08/27 01:47:25;;;;;;;1.33;0.90;;;;;;;20.67;84.90;100593.41;21083333;28;20052;-64
2023/08/27 01:57:27;;;;;;;1.17;0.88;;;;;;;20.65;84.77;100580.03;21082057;28;20052;-64
2023/08/27 02:07:30;;;;;;;1.23;1.02;;;;;;;20.65;84.73;100561.09;21079825;28;20203;-64
2023/08/27 02:17:32;;;;;;;0.80;0.80;;;;;;;20.65;84.55;100562.97;21091648;28;20495;-63
2023/08/27 02:27:34;;;;;;;2.05;1.02;;;;;;;20.64;84.55;100545.88;21147162;28;20487;-64
2023/08/27 02:37:36;;;;;;;1.23;0.90;;;;;;;20.62;84.29;100547.91;21153695;28;20052;-64
2023/08/27 02:47:38;;;;;;;0.80;0.80;;;;;;;20.62;84.14;100549.78;21101360;28;20047;-64
2023/08/27 02:57:39;;;;;;;1.10;1.00;;;;;;;20.61;84.01;100559.72;21119807;28;20055;-63
2023/08/27 03:07:41;;;;;;;1.60;1.00;;;;;;;20.60;83.50;100543.69;21145611;28;20043;-64
2023/08/27 03:17:43;;;;;;;1.10;0.88;;;;;;;20.58;83.54;100557.34;21133928;28;20040;-64
2023/08/27 03:27:45;;;;;;;2.70;1.13;;;;;;;20.57;83.33;100550.25;21137102;28;20437;-64
2023/08/27 03:37:46;;;;;;;2.47;0.98;;;;;;;20.55;83.02;100552.25;21099345;28;20052;-64
2023/08/27 03:47:48;;;;;;;1.17;0.98;;;;;;;20.53;82.92;100544.31;21122784;28;20047;-64
2023/08/27 03:57:50;;;;;;;1.20;1.10;;;;;;;20.52;82.99;100531.78;21156949;28;20139;-63
2023/08/27 04:07:52;;;;;;;1.75;0.85;;;;;;;20.51;82.90;100511.16;21155745;28;20082;-64
2023/08/27 04:17:54;;;;;;;0.88;0.88;;;;;;;20.50;82.62;100504.06;21113446;28;20051;-63
2023/08/27 04:27:56;;;;;;;1.10;1.00;;;;;;;20.50;82.57;100487.00;21069992;28;20070;-63
2023/08/27 04:37:58;;;;;;;1.05;0.88;;;;;;;20.50;82.21;100522.16;21070911;28;20424;-64
2023/08/27 04:48:00;;;;;;;1.20;1.10;;;;;;;20.49;82.23;100498.84;21080289;28;20042;-63
2023/08/27 04:58:04;;;;;;;1.13;1.05;;;;;;;20.48;82.07;100508.78;21104312;28;20558;-64
2023/08/27 05:08:05;;;;;;;1.10;1.00;;;;;;;20.47;81.97;100519.78;21099534;28;20048;-63
2023/08/27 05:18:09;;;;;;;0.73;0.70;;;;;;;20.47;81.99;100530.59;21091042;28;20135;-64
2023/08/27 05:28:11;;;;;;;1.15;0.90;;;;;;;20.47;82.12;100533.31;21092886;28;20048;-63
2023/08/27 05:38:12;;;;;;;0.88;0.88;;;;;;;20.47;82.18;100533.31;21090435;28;20055;-64
2023/08/27 05:48:14;;;;;;;1.17;1.00;;;;;;;20.46;82.36;100526.22;21088482;28;20044;-64
2023/08/27 05:58:16;;;;;;;1.25;1.00;;;;;;;20.47;82.76;100536.00;21075410;28;20052;-64
2023/08/27 06:08:18;;;;;;;1.25;0.82;;;;;;;20.47;83.36;100541.41;21085338;28;20084;-63
2023/08/27 06:18:20;;;;;;;1.42;0.85;;;;;;;20.47;83.95;100531.44;21073158;28;20052;-63
2023/08/27 06:28:22;;;;;;;1.25;0.70;;;;;;;20.47;84.65;100512.50;21096653;28;20036;-62
2023/08/27 06:38:24;;;;;;;0.95;0.60;;;;;;;20.47;85.61;100495.44;21111216;28;20060;-63
2023/08/27 06:48:39;;;;;;;2.30;0.95;;;;;;;20.56;86.33;100510.69;21052392;28;20499;-62
2023/08/27 06:59:19;;;;;;;0.77;0.70;;;;;;;20.61;87.30;100504.81;21072869;28;20047;-63
2023/08/27 07:09:25;;;;;;;1.20;0.80;;;;;;;20.64;88.01;100502.59;21087474;28;20083;-62
2023/08/27 07:19:27;;;;;;;1.05;0.70;;;;;;;20.73;88.47;100512.44;21072706;28;20058;-63
2023/08/27 07:29:33;;;;;;;1.60;0.95;;;;;;;20.77;88.67;100490.44;21076327;28;20040;-62
2023/08/27 07:39:34;;;;;;;2.15;0.90;;;;;;;20.84;88.58;100468.03;21079875;28;20052;-63
2023/08/27 07:49:36;;;;;;;1.90;0.80;;;;;;;21.01;87.87;100484.31;21084382;28;20518;-62
2023/08/27 07:59:38;;;;;;;1.67;0.60;;;;;;;21.22;87.24;100489.22;21087069;28;20572;-61
2023/08/27 08:09:40;;;;;;;1.92;0.60;;;;;;;21.25;87.20;100504.28;21092530;28;20052;-61
2023/08/27 08:19:42;;;;;;;0.90;0.60;;;;;;;21.28;87.71;100493.97;21085989;28;20048;-61
2023/08/27 08:29:44;;;;;;;1.42;0.65;;;;;;;21.36;88.13;100486.84;21081241;28;20044;-62
2023/08/27 08:39:46;;;;;;;0.80;0.60;;;;;;;21.43;87.93;100483.31;21094638;28;20504;-62
2023/08/27 08:49:53;;;;;;;1.40;0.75;;;;;;;21.51;88.06;100471.59;21052218;28;20057;-62
2023/08/27 08:59:55;;;;;;;1.90;0.90;;;;;;;21.59;87.82;100470.75;21059972;28;20075;-62
2023/08/27 09:09:58;;;;;;;0.85;0.60;;;;;;;21.64;87.75;100471.09;21060364;28;20041;-62
2023/08/27 09:19:59;;;;;;;1.10;0.60;;;;;;;21.70;87.57;100472.31;21072941;28;20777;-62
2023/08/27 09:30:03;;;;;;;0.43;0.38;;;;;;;21.75;87.54;100471.75;21074768;28;20075;-62
2023/08/27 09:40:06;;;;;;;0.40;0.40;;;;;;;21.79;87.39;100467.69;21064387;28;20044;-61
2023/08/27 09:50:15;;;;;;;0.73;0.73;;;;;;;21.81;87.34;100458.38;21055484;28;20048;-62
2023/08/27 10:00:18;;;;;;;0.63;0.60;;;;;;;21.83;87.34;100453.63;21071530;28;20060;-62
2023/08/27 10:10:20;;;;;;;0.85;0.60;;;;;;;21.81;87.36;100439.41;21082326;28;20445;-63
2023/08/27 10:20:22;;;;;;;1.13;0.77;;;;;;;21.85;86.97;100435.34;21058546;28;20450;-62
2023/08/27 10:30:24;;;;;;;0.65;0.50;;;;;;;21.82;85.95;100423.97;21061626;28;20047;-62
2023/08/27 10:40:27;;;;;;;0.68;0.60;;;;;;;21.80;86.02;100410.63;21084420;28;20052;-62
2023/08/27 10:50:42;;;;;;;1.05;0.70;;;;;;;21.80;85.50;100416.03;21066823;28;20051;-62
2023/08/27 11:01:06;;;;;;;0.88;0.70;;;;;;;21.78;85.38;100411.81;21083762;28;21098;-62
2023/08/27 11:11:12;;;;;;;1.50;0.63;;;;;;;21.75;85.72;100407.59;21057701;28;20047;-62
2023/08/27 11:21:26;;;;;;;1.15;0.80;;;;;;;21.71;85.92;100407.09;21084768;28;20067;-62
2023/08/27 11:31:27;;;;;;;0.50;0.50;;;;;;;21.70;86.04;100396.44;21079300;28;20073;-61
2023/08/27 11:41:35;;;;;;;0.57;0.57;;;;;;;21.68;86.39;100388.47;21058602;28;20071;-62
2023/08/27 11:51:36;;;;;;;1.00;0.63;;;;;;;21.67;86.81;100391.38;21069575;28;20040;-63
2023/08/27 12:01:38;;;;;;;1.48;0.75;;;;;;;21.64;86.77;100405.25;21078159;28;20063;-61
2023/08/27 12:11:40;;;;;;;2.65;0.73;;;;;;;21.64;86.41;100462.13;21067849;28;20052;-61
2023/08/27 12:21:53;;;;;;;2.33;0.80;;;;;;;21.59;86.83;100449.91;21095567;27;20060;-63
2023/08/27 12:31:56;;;;;;;1.85;0.70;;;;;;;21.49;87.67;100451.97;21046795;28;20051;-65
2023/08/27 12:42:01;;;;;;;1.20;0.63;;;;;;;21.45;88.78;100456.03;21067715;28;20061;-65
2023/08/27 12:52:04;;;;;;;1.17;1.00;;;;;;;21.49;89.12;100445.72;21091938;28;20051;-65
2023/08/27 13:02:07;;;;;;;1.00;0.90;;;;;;;21.53;89.09;100437.06;21075643;28;20059;-64
2023/08/27 13:12:09;;;;;;;1.00;0.73;;;;;;;21.55;89.32;100436.91;21088098;28;20071;-64
2023/08/27 13:22:11;;;;;;;1.00;0.90;;;;;;;21.56;88.88;100439.44;21069129;28;20051;-64
2023/08/27 13:32:12;;;;;;;0.80;0.80;;;;;;;21.59;88.43;100441.78;21077673;28;20058;-65
2023/08/27 13:42:14;;;;;;;1.10;0.90;;;;;;;21.64;88.46;100460.28;21094983;28;20062;-64
2023/08/27 13:52:18;;;;;;;1.55;0.60;;;;;;;21.64;88.38;100444.03;21088337;28;20079;-64
2023/08/27 14:02:19;;;;;;;0.82;0.70;;;;;;;21.64;88.31;100432.31;21070358;28;20576;-65
2023/08/27 14:12:21;;;;;;;0.40;0.40;;;;;;;21.65;87.77;100412.34;21090731;28;20054;-64
2023/08/27 14:22:26;;;;;;;1.10;0.65;;;;;;;21.65;88.58;100407.78;21082440;28;20638;-64
2023/08/27 14:32:28;;;;;;;0.60;0.60;;;;;;;21.65;88.81;100445.72;21063344;27;20040;-64
2023/08/27 14:42:30;;;;;;;0.60;0.60;;;;;;;21.56;88.49;100447.56;21089795;28;20126;-64
2023/08/27 14:52:31;;;;;;;1.60;0.80;;;;;;;21.60;89.57;100472.44;21085035;28;20106;-64
2023/08/27 15:02:33;;;;;;;1.15;0.77;;;;;;;21.58;88.72;100461.75;21074414;28;20039;-62
2023/08/27 15:12:35;;;;;;;3.40;1.92;;;;;;;21.59;88.97;100452.63;21072424;28;20055;-62
2023/08/27 15:22:37;;;;;;;3.47;2.33;;;;;;;21.68;90.05;100441.81;21075314;28;20048;-61
2023/08/27 15:32:38;;;;;;;4.75;2.15;;;;;;;21.78;90.29;100466.84;21064314;28;20039;-63
2023/08/27 15:42:41;;;;;;;4.13;1.40;;;;;;;21.86;87.98;100463.25;21056918;28;20083;-60
2023/08/27 15:52:43;;;;;;;1.60;0.90;;;;;;;21.91;88.03;100460.91;21067445;28;20044;-61
2023/08/27 16:02:45;;;;;;;3.42;1.35;;;;;;;21.95;89.42;100461.38;21083717;28;20056;-61
2023/08/27 16:12:48;;;;;;;8.15;2.95;;;;;;;21.97;90.31;100456.63;21070443;28;20488;-62
2023/08/27 16:22:49;;;;;;;4.30;1.55;;;;;;;22.05;93.62;100472.03;21064383;28;20051;-62
2023/08/27 16:32:51;;;;;;;2.55;1.23;;;;;;;22.11;95.14;100483.03;21067020;28;20126;-64
2023/08/27 16:42:54;;;;;;;2.63;1.15;;;;;;;22.13;92.44;100475.56;21053890;28;20052;-62
2023/08/27 16:52:58;;;;;;;3.22;1.08;;;;;;;22.07;90.13;100476.25;21130990;28;20043;-62
2023/08/27 17:03:00;;;;;;;1.73;0.88;;;;;;;22.07;92.90;100475.41;21102392;28;20083;-62
2023/08/27 17:13:02;;;;;;;1.75;0.77;;;;;;;22.01;90.92;100490.50;21084049;28;20139;-61
2023/08/27 17:23:05;;;;;;;1.45;0.80;;;;;;;21.93;89.17;100512.19;21088084;28;20097;-61
2023/08/27 17:33:06;;;;;;;1.33;0.80;;;;;;;21.88;88.85;100510.03;21082063;28;20051;-62
2023/08/27 17:43:13;;;;;;;1.70;0.95;;;;;;;21.80;88.76;100529.00;21099658;28;20056;-61
2023/08/27 17:53:15;;;;;;;1.17;0.70;;;;;;;21.80;88.49;100535.28;21116125;28;20055;-61
2023/08/27 18:03:17;;;;;;;1.25;0.70;;;;;;;21.77;87.62;100548.28;21105772;28;20052;-61
2023/08/27 18:13:19;;;;;;;2.35;0.73;;;;;;;21.74;87.30;100552.22;21120585;28;20079;-61
2023/08/27 18:23:20;;;;;;;1.85;0.80;;;;;;;21.73;87.41;100553.22;21112470;28;20571;-61
2023/08/27 18:33:22;;;;;;;1.65;0.57;;;;;;;21.70;86.61;100562.53;21081153;27;20101;-61
2023/08/27 18:43:24;;;;;;;1.45;0.60;;;;;;;21.67;85.91;100560.16;21078946;28;20060;-61
2023/08/27 18:53:26;;;;;;;1.65;1.00;;;;;;;21.64;85.31;100578.59;21063786;28;20051;-61
2023/08/27 19:03:28;;;;;;;1.45;0.60;;;;;;;21.59;85.07;100590.75;21077249;28;20051;-61
2023/08/27 19:13:30;;;;;;;1.45;0.80;;;;;;;21.58;84.90;100596.38;21077037;28;20048;-61
2023/08/27 19:23:32;;;;;;;0.85;0.60;;;;;;;21.54;84.17;100592.31;21060722;28;20693;-61
2023/08/27 19:33:34;;;;;;;0.98;0.60;;;;;;;21.51;84.08;100601.59;21074402;28;20126;-61
2023/08/27 19:43:35;;;;;;;1.65;0.60;;;;;;;21.49;83.63;100603.63;21074896;28;20617;-61
2023/08/27 19:53:37;;;;;;;0.98;0.50;;;;;;;21.46;83.58;100611.25;21072508;28;20109;-61
2023/08/27 20:03:39;;;;;;;0.70;0.50;;;;;;;21.43;82.91;100620.56;21029096;28;20044;-61
2023/08/27 20:13:41;;;;;;;1.73;0.50;;;;;;;21.40;82.79;100618.19;20990261;28;20064;-61
2023/08/27 20:23:42;;;;;;;0.93;0.50;;;;;;;21.37;82.59;100621.22;20989273;28;20161;-61
2023/08/27 20:33:44;;;;;;;0.75;0.40;;;;;;;21.35;82.99;100613.25;20988131;28;20060;-61
2023/08/27 20:43:47;;;;;;;0.55;0.40;;;;;;;21.34;82.81;100616.97;20988848;28;20107;-61
2023/08/27 20:53:49;;;;;;;2.10;0.50;;;;;;;21.32;82.93;100618.16;20987411;28;20051;-61
2023/08/27 21:03:51;;;;;;;1.65;0.68;;;;;;;21.32;83.34;100629.00;21043236;28;20048;-61
2023/08/27 21:13:52;;;;;;;0.50;0.50;;;;;;;21.30;84.21;100637.28;21083051;28;20499;-61
2023/08/27 21:23:54;;;;;;;1.02;0.43;;;;;;;21.27;83.90;100633.06;21086498;28;20512;-61
2023/08/27 21:33:56;;;;;;;0.68;0.50;;;;;;;21.26;83.88;100650.31;21085938;28;20062;-61
2023/08/27 21:43:58;;;;;;;0.60;0.47;;;;;;;21.25;84.74;100662.16;21085476;28;20113;-61
2023/08/27 21:54:00;;;;;;;0.43;0.40;;;;;;;21.24;83.77;100670.44;21083104;28;20048;-61
2023/08/27 22:04:02;;;;;;;0.70;0.40;;;;;;;21.21;83.99;100676.16;21080700;28;20064;-61
2023/08/27 22:14:03;;;;;;;0.82;0.40;;;;;;;21.20;83.41;100675.31;21082756;28;20063;-61
2023/08/27 22:24:05;;;;;;;0.73;0.50;;;;;;;21.20;83.80;100679.88;21080574;28;20101;-61
2023/08/27 22:34:07;;;;;;;0.68;0.40;;;;;;;21.16;81.90;100698.31;21081882;28;20055;-61
2023/08/27 22:44:10;;;;;;;0.40;0.40;;;;;;;21.10;80.16;100701.66;21079891;28;20060;-61
2023/08/27 22:54:12;;;;;;;0.73;0.40;;;;;;;21.08;80.24;100701.84;21078981;28;20463;-61
2023/08/27 23:04:14;;;;;;;1.05;0.60;;;;;;;21.05;80.13;100704.00;21079154;28;20060;-61
2023/08/27 23:14:18;;;;;;;1.55;0.55;;;;;;;21.03;79.86;100719.56;21077627;28;20052;-61
2023/08/27 23:24:20;;;;;;;0.60;0.60;;;;;;;21.01;80.13;100719.75;21077760;28;20105;-61
2023/08/27 23:34:21;;;;;;;0.98;0.50;;;;;;;21.00;79.94;100729.72;21076545;28;20117;-61
2023/08/27 23:44:23;;;;;;;0.68;0.60;;;;;;;20.98;79.75;100731.72;21074744;28;20044;-61
2023/08/27 23:54:25;;;;;;;0.63;0.60;;;;;;;20.97;79.78;100735.44;21073838;28;20050;-61
